sensor_id;sensor_type;location;lat;lon;timestamp;P1;durP1;ratioP1;P2;durP2;ratioP2
21780;SDS011;52576;53.614;9.894;2022-07-04T00:00:18;9.55;;;3.08;;
21780;SDS011;52576;53.614;9.894;2022-07-04T00:01:22;9.20;;;3.20;;
21780;SDS011;52576;53.614;9.894;2022-07-04T00:02:26;7.70;;;3.03;;
21780;SDS011;52576;53.614;9.894;2022-07-04T00:03:28;6.07;;;2.70;;
21780;SDS011;52576;53.614;9.894;2022-07-04T00:04:31;8.82;;;3.25;;
21780;SDS011;52576;53.614;9.894;2022-07-04T00:05:34;9.48;;;3.47;;
21780;SDS011;52576;53.614;9.894;2022-07-04T00:06:37;8.85;;;3.30;;
21780;SDS011;52576;53.614;9.894;2022-07-04T00:07:40;9.23;;;3.08;;
21780;SDS011;52576;53.614;9.894;2022-07-04T00:08:43;9.63;;;3.38;;
21780;SDS011;52576;53.614;9.894;2022-07-04T00:09:46;9.73;;;3.25;;
21780;SDS011;52576;53.614;9.894;2022-07-04T00:10:49;10.90;;;3.30;;
21780;SDS011;52576;53.614;9.894;2022-07-04T00:11:51;10.32;;;3.40;;
21780;SDS011;52576;53.614;9.894;2022-07-04T00:12:54;7.50;;;3.20;;
21780;SDS011;52576;53.614;9.894;2022-07-04T00:13:57;12.55;;;3.20;;
21780;SDS011;52576;53.614;9.894;2022-07-04T00:15:00;9.63;;;3.47;;
21780;SDS011;52576;53.614;9.894;2022-07-04T00:16:03;13.77;;;3.67;;
21780;SDS011;52576;53.614;9.894;2022-07-04T00:17:09;10.68;;;3.78;;
21780;SDS011;52576;53.614;9.894;2022-07-04T00:18:11;9.98;;;4.00;;
21780;SDS011;52576;53.614;9.894;2022-07-04T00:19:14;8.63;;;3.60;;
21780;SDS011;52576;53.614;9.894;2022-07-04T00:20:16;8.70;;;3.95;;
21780;SDS011;52576;53.614;9.894;2022-07-04T00:21:20;12.38;;;4.30;;
21780;SDS011;52576;53.614;9.894;2022-07-04T00:22:23;13.93;;;4.13;;
21780;SDS011;52576;53.614;9.894;2022-07-04T00:23:25;12.80;;;3.97;;
21780;SDS011;52576;53.614;9.894;2022-07-04T00:24:28;10.20;;;4.07;;
21780;SDS011;52576;53.614;9.894;2022-07-04T00:25:31;11.23;;;4.55;;
21780;SDS011;52576;53.614;9.894;2022-07-04T00:26:34;10.98;;;4.03;;
21780;SDS011;52576;53.614;9.894;2022-07-04T00:27:37;11.95;;;4.70;;
21780;SDS011;52576;53.614;9.894;2022-07-04T00:28:39;9.88;;;4.05;;
21780;SDS011;52576;53.614;9.894;2022-07-04T00:29:43;10.60;;;4.47;;
21780;SDS011;52576;53.614;9.894;2022-07-04T00:30:45;13.43;;;5.18;;
21780;SDS011;52576;53.614;9.894;2022-07-04T00:31:49;10.00;;;4.40;;
21780;SDS011;52576;53.614;9.894;2022-07-04T00:32:52;9.20;;;4.65;;
21780;SDS011;52576;53.614;9.894;2022-07-04T00:33:56;12.63;;;4.70;;
21780;SDS011;52576;53.614;9.894;2022-07-04T00:34:58;7.68;;;4.72;;
21780;SDS011;52576;53.614;9.894;2022-07-04T00:36:01;9.57;;;4.63;;
21780;SDS011;52576;53.614;9.894;2022-07-04T00:37:04;10.93;;;4.95;;
21780;SDS011;52576;53.614;9.894;2022-07-04T00:38:07;11.02;;;5.22;;
21780;SDS011;52576;53.614;9.894;2022-07-04T00:39:10;11.32;;;5.60;;
21780;SDS011;52576;53.614;9.894;2022-07-04T00:40:12;14.32;;;4.95;;
21780;SDS011;52576;53.614;9.894;2022-07-04T00:41:16;10.93;;;5.43;;
21780;SDS011;52576;53.614;9.894;2022-07-04T00:42:18;11.73;;;5.72;;
21780;SDS011;52576;53.614;9.894;2022-07-04T00:43:22;17.23;;;5.63;;
21780;SDS011;52576;53.614;9.894;2022-07-04T00:44:25;11.68;;;5.53;;
21780;SDS011;52576;53.614;9.894;2022-07-04T00:45:28;15.73;;;5.55;;
21780;SDS011;52576;53.614;9.894;2022-07-04T00:46:30;13.57;;;5.38;;
21780;SDS011;52576;53.614;9.894;2022-07-04T00:47:34;13.07;;;5.60;;
21780;SDS011;52576;53.614;9.894;2022-07-04T00:48:38;14.40;;;5.88;;
21780;SDS011;52576;53.614;9.894;2022-07-04T00:49:41;12.57;;;6.07;;
21780;SDS011;52576;53.614;9.894;2022-07-04T00:50:43;14.30;;;6.10;;
21780;SDS011;52576;53.614;9.894;2022-07-04T00:51:47;10.10;;;6.10;;
21780;SDS011;52576;53.614;9.894;2022-07-04T00:52:50;15.57;;;6.00;;
21780;SDS011;52576;53.614;9.894;2022-07-04T00:53:54;13.50;;;5.78;;
21780;SDS011;52576;53.614;9.894;2022-07-04T00:54:57;16.50;;;6.50;;
21780;SDS011;52576;53.614;9.894;2022-07-04T00:56:02;12.23;;;6.22;;
21780;SDS011;52576;53.614;9.894;2022-07-04T00:57:06;19.25;;;6.88;;
21780;SDS011;52576;53.614;9.894;2022-07-04T00:58:09;14.05;;;6.35;;
21780;SDS011;52576;53.614;9.894;2022-07-04T00:59:14;13.20;;;6.25;;
21780;SDS011;52576;53.614;9.894;2022-07-04T01:00:17;13.02;;;6.35;;
21780;SDS011;52576;53.614;9.894;2022-07-04T01:01:20;14.32;;;6.38;;
21780;SDS011;52576;53.614;9.894;2022-07-04T01:02:23;13.45;;;6.93;;
21780;SDS011;52576;53.614;9.894;2022-07-04T01:03:25;14.27;;;6.90;;
21780;SDS011;52576;53.614;9.894;2022-07-04T01:04:30;16.80;;;7.40;;
21780;SDS011;52576;53.614;9.894;2022-07-04T01:05:32;13.38;;;6.40;;
21780;SDS011;52576;53.614;9.894;2022-07-04T01:06:36;17.25;;;8.20;;
21780;SDS011;52576;53.614;9.894;2022-07-04T01:07:39;14.38;;;7.25;;
21780;SDS011;52576;53.614;9.894;2022-07-04T01:08:42;14.48;;;7.55;;
21780;SDS011;52576;53.614;9.894;2022-07-04T01:09:45;18.88;;;7.82;;
21780;SDS011;52576;53.614;9.894;2022-07-04T01:10:49;14.18;;;7.15;;
21780;SDS011;52576;53.614;9.894;2022-07-04T01:11:52;16.85;;;7.18;;
21780;SDS011;52576;53.614;9.894;2022-07-04T01:12:55;15.40;;;8.25;;
21780;SDS011;52576;53.614;9.894;2022-07-04T01:13:57;16.70;;;7.53;;
21780;SDS011;52576;53.614;9.894;2022-07-04T01:15:01;15.10;;;8.32;;
21780;SDS011;52576;53.614;9.894;2022-07-04T01:16:04;13.38;;;8.23;;
21780;SDS011;52576;53.614;9.894;2022-07-04T01:17:07;17.33;;;8.57;;
21780;SDS011;52576;53.614;9.894;2022-07-04T01:18:09;16.80;;;8.88;;
21780;SDS011;52576;53.614;9.894;2022-07-04T01:19:21;20.02;;;8.68;;
21780;SDS011;52576;53.614;9.894;2022-07-04T01:20:25;16.42;;;8.38;;
21780;SDS011;52576;53.614;9.894;2022-07-04T01:21:28;18.75;;;9.57;;
21780;SDS011;52576;53.614;9.894;2022-07-04T01:22:33;12.48;;;8.88;;
21780;SDS011;52576;53.614;9.894;2022-07-04T01:23:37;14.50;;;8.45;;
21780;SDS011;52576;53.614;9.894;2022-07-04T01:24:40;17.60;;;9.18;;
21780;SDS011;52576;53.614;9.894;2022-07-04T01:25:43;19.50;;;8.98;;
21780;SDS011;52576;53.614;9.894;2022-07-04T01:26:46;19.05;;;8.93;;
21780;SDS011;52576;53.614;9.894;2022-07-04T01:27:49;16.77;;;9.05;;
21780;SDS011;52576;53.614;9.894;2022-07-04T01:28:51;18.80;;;9.48;;
21780;SDS011;52576;53.614;9.894;2022-07-04T01:29:54;20.27;;;10.25;;
21780;SDS011;52576;53.614;9.894;2022-07-04T01:30:57;16.52;;;9.93;;
21780;SDS011;52576;53.614;9.894;2022-07-04T01:32:03;15.13;;;9.43;;
21780;SDS011;52576;53.614;9.894;2022-07-04T01:33:07;17.02;;;9.93;;
21780;SDS011;52576;53.614;9.894;2022-07-04T01:34:10;18.17;;;9.70;;
21780;SDS011;52576;53.614;9.894;2022-07-04T01:35:12;20.38;;;10.48;;
21780;SDS011;52576;53.614;9.894;2022-07-04T01:36:16;17.83;;;10.68;;
21780;SDS011;52576;53.614;9.894;2022-07-04T01:37:18;17.67;;;11.18;;
21780;SDS011;52576;53.614;9.894;2022-07-04T01:38:21;18.33;;;10.70;;
21780;SDS011;52576;53.614;9.894;2022-07-04T01:39:23;21.27;;;11.18;;
21780;SDS011;52576;53.614;9.894;2022-07-04T01:40:27;18.23;;;11.00;;
21780;SDS011;52576;53.614;9.894;2022-07-04T01:41:32;17.60;;;10.85;;
21780;SDS011;52576;53.614;9.894;2022-07-04T01:42:35;19.48;;;11.02;;
21780;SDS011;52576;53.614;9.894;2022-07-04T01:43:38;17.95;;;11.88;;
21780;SDS011;52576;53.614;9.894;2022-07-04T01:44:41;19.45;;;11.15;;
21780;SDS011;52576;53.614;9.894;2022-07-04T01:45:44;18.05;;;10.95;;
21780;SDS011;52576;53.614;9.894;2022-07-04T01:46:46;16.55;;;11.23;;
21780;SDS011;52576;53.614;9.894;2022-07-04T01:47:50;18.80;;;10.63;;
21780;SDS011;52576;53.614;9.894;2022-07-04T01:48:52;20.05;;;11.13;;
21780;SDS011;52576;53.614;9.894;2022-07-04T01:49:55;16.95;;;11.57;;
21780;SDS011;52576;53.614;9.894;2022-07-04T01:50:57;19.08;;;11.13;;
21780;SDS011;52576;53.614;9.894;2022-07-04T01:52:02;19.00;;;11.48;;
21780;SDS011;52576;53.614;9.894;2022-07-04T01:53:05;19.60;;;12.00;;
21780;SDS011;52576;53.614;9.894;2022-07-04T01:54:09;28.75;;;13.07;;
21780;SDS011;52576;53.614;9.894;2022-07-04T01:55:11;22.20;;;13.32;;
21780;SDS011;52576;53.614;9.894;2022-07-04T01:56:15;21.73;;;13.40;;
21780;SDS011;52576;53.614;9.894;2022-07-04T01:57:17;21.70;;;13.65;;
21780;SDS011;52576;53.614;9.894;2022-07-04T01:58:21;22.75;;;13.68;;
21780;SDS011;52576;53.614;9.894;2022-07-04T01:59:23;22.80;;;14.13;;
21780;SDS011;52576;53.614;9.894;2022-07-04T02:00:46;21.00;;;13.95;;
21780;SDS011;52576;53.614;9.894;2022-07-04T02:02:07;24.13;;;15.15;;
21780;SDS011;52576;53.614;9.894;2022-07-04T02:03:12;25.42;;;15.05;;
21780;SDS011;52576;53.614;9.894;2022-07-04T02:04:14;23.70;;;14.55;;
21780;SDS011;52576;53.614;9.894;2022-07-04T02:05:17;27.00;;;14.90;;
21780;SDS011;52576;53.614;9.894;2022-07-04T02:06:19;23.60;;;14.25;;
21780;SDS011;52576;53.614;9.894;2022-07-04T02:07:24;22.55;;;14.88;;
21780;SDS011;52576;53.614;9.894;2022-07-04T02:08:26;23.52;;;15.48;;
21780;SDS011;52576;53.614;9.894;2022-07-04T02:09:50;25.50;;;15.82;;
21780;SDS011;52576;53.614;9.894;2022-07-04T02:10:52;22.33;;;14.63;;
21780;SDS011;52576;53.614;9.894;2022-07-04T02:11:55;26.38;;;15.60;;
21780;SDS011;52576;53.614;9.894;2022-07-04T02:13:24;26.63;;;14.88;;
21780;SDS011;52576;53.614;9.894;2022-07-04T02:14:26;23.65;;;14.30;;
21780;SDS011;52576;53.614;9.894;2022-07-04T02:15:29;28.65;;;16.00;;
21780;SDS011;52576;53.614;9.894;2022-07-04T02:16:34;24.60;;;15.38;;
21780;SDS011;52576;53.614;9.894;2022-07-04T02:17:43;23.55;;;15.57;;
21780;SDS011;52576;53.614;9.894;2022-07-04T02:18:46;24.08;;;14.73;;
21780;SDS011;52576;53.614;9.894;2022-07-04T02:19:48;23.15;;;14.43;;
21780;SDS011;52576;53.614;9.894;2022-07-04T02:20:52;23.48;;;14.85;;
21780;SDS011;52576;53.614;9.894;2022-07-04T02:21:54;25.65;;;15.00;;
21780;SDS011;52576;53.614;9.894;2022-07-04T02:22:58;24.85;;;15.32;;
21780;SDS011;52576;53.614;9.894;2022-07-04T02:24:01;26.05;;;15.05;;
21780;SDS011;52576;53.614;9.894;2022-07-04T02:25:04;19.30;;;14.50;;
21780;SDS011;52576;53.614;9.894;2022-07-04T02:26:07;22.80;;;15.20;;
21780;SDS011;52576;53.614;9.894;2022-07-04T02:27:10;23.83;;;14.55;;
21780;SDS011;52576;53.614;9.894;2022-07-04T02:28:13;21.40;;;14.52;;
21780;SDS011;52576;53.614;9.894;2022-07-04T02:29:16;22.90;;;14.43;;
21780;SDS011;52576;53.614;9.894;2022-07-04T02:30:18;22.00;;;14.05;;
21780;SDS011;52576;53.614;9.894;2022-07-04T02:31:21;20.17;;;14.63;;
21780;SDS011;52576;53.614;9.894;2022-07-04T02:32:24;23.40;;;14.55;;
21780;SDS011;52576;53.614;9.894;2022-07-04T02:33:27;26.33;;;13.75;;
21780;SDS011;52576;53.614;9.894;2022-07-04T02:34:29;24.05;;;13.98;;
21780;SDS011;52576;53.614;9.894;2022-07-04T02:35:33;22.35;;;13.93;;
21780;SDS011;52576;53.614;9.894;2022-07-04T02:36:35;22.00;;;14.35;;
21780;SDS011;52576;53.614;9.894;2022-07-04T02:37:38;26.30;;;14.15;;
21780;SDS011;52576;53.614;9.894;2022-07-04T02:38:43;19.95;;;13.13;;
21780;SDS011;52576;53.614;9.894;2022-07-04T02:39:45;19.15;;;12.70;;
21780;SDS011;52576;53.614;9.894;2022-07-04T02:40:49;22.17;;;12.88;;
21780;SDS011;52576;53.614;9.894;2022-07-04T02:41:51;18.88;;;12.77;;
21780;SDS011;52576;53.614;9.894;2022-07-04T02:42:57;22.85;;;13.50;;
21780;SDS011;52576;53.614;9.894;2022-07-04T02:44:00;20.33;;;13.70;;
21780;SDS011;52576;53.614;9.894;2022-07-04T02:45:03;22.90;;;13.10;;
21780;SDS011;52576;53.614;9.894;2022-07-04T02:46:07;19.67;;;12.90;;
21780;SDS011;52576;53.614;9.894;2022-07-04T02:47:10;22.95;;;14.40;;
21780;SDS011;52576;53.614;9.894;2022-07-04T02:48:13;25.33;;;13.25;;
21780;SDS011;52576;53.614;9.894;2022-07-04T02:49:15;19.60;;;13.43;;
21780;SDS011;52576;53.614;9.894;2022-07-04T02:50:18;19.88;;;13.23;;
21780;SDS011;52576;53.614;9.894;2022-07-04T02:51:20;23.50;;;13.18;;
21780;SDS011;52576;53.614;9.894;2022-07-04T02:52:24;21.90;;;13.65;;
21780;SDS011;52576;53.614;9.894;2022-07-04T02:53:26;22.48;;;13.38;;
21780;SDS011;52576;53.614;9.894;2022-07-04T02:54:30;22.02;;;13.15;;
21780;SDS011;52576;53.614;9.894;2022-07-04T02:55:33;18.10;;;12.77;;
21780;SDS011;52576;53.614;9.894;2022-07-04T02:56:36;20.27;;;13.18;;
21780;SDS011;52576;53.614;9.894;2022-07-04T02:57:38;15.98;;;12.55;;
21780;SDS011;52576;53.614;9.894;2022-07-04T02:58:41;20.42;;;13.05;;
21780;SDS011;52576;53.614;9.894;2022-07-04T02:59:43;21.23;;;12.80;;
21780;SDS011;52576;53.614;9.894;2022-07-04T03:00:46;22.35;;;12.80;;
21780;SDS011;52576;53.614;9.894;2022-07-04T03:01:49;20.13;;;12.88;;
21780;SDS011;52576;53.614;9.894;2022-07-04T03:02:53;20.30;;;13.00;;
21780;SDS011;52576;53.614;9.894;2022-07-04T03:03:57;20.30;;;13.45;;
21780;SDS011;52576;53.614;9.894;2022-07-04T03:05:09;21.27;;;13.35;;
21780;SDS011;52576;53.614;9.894;2022-07-04T03:06:11;22.23;;;13.10;;
21780;SDS011;52576;53.614;9.894;2022-07-04T03:07:15;21.10;;;12.40;;
21780;SDS011;52576;53.614;9.894;2022-07-04T03:08:17;20.58;;;12.77;;
21780;SDS011;52576;53.614;9.894;2022-07-04T03:09:20;20.98;;;12.60;;
21780;SDS011;52576;53.614;9.894;2022-07-04T03:10:24;19.80;;;12.15;;
21780;SDS011;52576;53.614;9.894;2022-07-04T03:11:27;22.67;;;12.15;;
21780;SDS011;52576;53.614;9.894;2022-07-04T03:12:29;14.73;;;12.23;;
21780;SDS011;52576;53.614;9.894;2022-07-04T03:13:33;16.60;;;12.18;;
21780;SDS011;52576;53.614;9.894;2022-07-04T03:14:35;18.88;;;12.48;;
21780;SDS011;52576;53.614;9.894;2022-07-04T03:15:38;15.55;;;11.75;;
21780;SDS011;52576;53.614;9.894;2022-07-04T03:16:41;21.50;;;12.45;;
21780;SDS011;52576;53.614;9.894;2022-07-04T03:17:44;17.85;;;12.45;;
21780;SDS011;52576;53.614;9.894;2022-07-04T03:18:46;18.13;;;12.63;;
21780;SDS011;52576;53.614;9.894;2022-07-04T03:19:49;20.17;;;12.48;;
21780;SDS011;52576;53.614;9.894;2022-07-04T03:20:51;20.40;;;13.30;;
21780;SDS011;52576;53.614;9.894;2022-07-04T03:21:54;22.80;;;14.85;;
21780;SDS011;52576;53.614;9.894;2022-07-04T03:22:57;17.00;;;13.63;;
21780;SDS011;52576;53.614;9.894;2022-07-04T03:24:00;23.50;;;14.07;;
21780;SDS011;52576;53.614;9.894;2022-07-04T03:25:02;20.75;;;13.55;;
21780;SDS011;52576;53.614;9.894;2022-07-04T03:26:08;19.23;;;13.73;;
21780;SDS011;52576;53.614;9.894;2022-07-04T03:27:10;24.15;;;14.75;;
21780;SDS011;52576;53.614;9.894;2022-07-04T03:28:14;22.42;;;15.40;;
21780;SDS011;52576;53.614;9.894;2022-07-04T03:29:16;22.63;;;15.68;;
21780;SDS011;52576;53.614;9.894;2022-07-04T03:30:19;20.98;;;14.98;;
21780;SDS011;52576;53.614;9.894;2022-07-04T03:31:22;21.40;;;15.23;;
21780;SDS011;52576;53.614;9.894;2022-07-04T03:32:25;22.25;;;15.27;;
21780;SDS011;52576;53.614;9.894;2022-07-04T03:33:28;22.58;;;16.48;;
21780;SDS011;52576;53.614;9.894;2022-07-04T03:34:31;25.00;;;16.33;;
21780;SDS011;52576;53.614;9.894;2022-07-04T03:35:33;29.20;;;16.08;;
21780;SDS011;52576;53.614;9.894;2022-07-04T03:36:37;22.80;;;16.65;;
21780;SDS011;52576;53.614;9.894;2022-07-04T03:37:40;21.23;;;15.15;;
21780;SDS011;52576;53.614;9.894;2022-07-04T03:38:42;21.48;;;16.63;;
21780;SDS011;52576;53.614;9.894;2022-07-04T03:39:45;24.13;;;16.35;;
21780;SDS011;52576;53.614;9.894;2022-07-04T03:40:51;24.88;;;17.23;;
21780;SDS011;52576;53.614;9.894;2022-07-04T03:41:56;22.08;;;16.52;;
21780;SDS011;52576;53.614;9.894;2022-07-04T03:42:58;20.80;;;16.40;;
21780;SDS011;52576;53.614;9.894;2022-07-04T03:44:01;24.80;;;17.77;;
21780;SDS011;52576;53.614;9.894;2022-07-04T03:45:04;21.40;;;16.50;;
21780;SDS011;52576;53.614;9.894;2022-07-04T03:46:08;25.30;;;17.38;;
21780;SDS011;52576;53.614;9.894;2022-07-04T03:47:11;24.98;;;17.63;;
21780;SDS011;52576;53.614;9.894;2022-07-04T03:48:14;21.95;;;16.67;;
21780;SDS011;52576;53.614;9.894;2022-07-04T03:49:17;27.08;;;17.83;;
21780;SDS011;52576;53.614;9.894;2022-07-04T03:50:19;22.15;;;16.63;;
21780;SDS011;52576;53.614;9.894;2022-07-04T03:51:22;23.60;;;17.65;;
21780;SDS011;52576;53.614;9.894;2022-07-04T03:52:25;26.73;;;18.35;;
21780;SDS011;52576;53.614;9.894;2022-07-04T03:53:28;28.05;;;17.65;;
21780;SDS011;52576;53.614;9.894;2022-07-04T03:54:30;26.15;;;17.15;;
21780;SDS011;52576;53.614;9.894;2022-07-04T03:55:34;28.52;;;17.77;;
21780;SDS011;52576;53.614;9.894;2022-07-04T03:56:36;26.88;;;16.95;;
21780;SDS011;52576;53.614;9.894;2022-07-04T03:57:41;27.63;;;17.55;;
21780;SDS011;52576;53.614;9.894;2022-07-04T03:58:43;23.80;;;16.70;;
21780;SDS011;52576;53.614;9.894;2022-07-04T03:59:50;26.48;;;17.73;;
21780;SDS011;52576;53.614;9.894;2022-07-04T04:00:52;24.55;;;17.80;;
21780;SDS011;52576;53.614;9.894;2022-07-04T04:01:56;24.13;;;17.58;;
21780;SDS011;52576;53.614;9.894;2022-07-04T04:02:58;23.08;;;16.73;;
21780;SDS011;52576;53.614;9.894;2022-07-04T04:04:01;24.90;;;18.10;;
21780;SDS011;52576;53.614;9.894;2022-07-04T04:05:22;25.90;;;16.67;;
21780;SDS011;52576;53.614;9.894;2022-07-04T04:06:37;21.85;;;16.80;;
21780;SDS011;52576;53.614;9.894;2022-07-04T04:07:39;28.42;;;17.42;;
21780;SDS011;52576;53.614;9.894;2022-07-04T04:08:43;22.75;;;16.80;;
21780;SDS011;52576;53.614;9.894;2022-07-04T04:09:46;21.60;;;16.42;;
21780;SDS011;52576;53.614;9.894;2022-07-04T04:10:48;28.15;;;18.98;;
21780;SDS011;52576;53.614;9.894;2022-07-04T04:11:52;25.92;;;18.15;;
21780;SDS011;52576;53.614;9.894;2022-07-04T04:12:56;24.15;;;17.08;;
21780;SDS011;52576;53.614;9.894;2022-07-04T04:14:00;27.95;;;17.20;;
21780;SDS011;52576;53.614;9.894;2022-07-04T04:15:02;22.05;;;16.90;;
21780;SDS011;52576;53.614;9.894;2022-07-04T04:16:05;23.38;;;17.10;;
21780;SDS011;52576;53.614;9.894;2022-07-04T04:17:09;27.58;;;17.40;;
21780;SDS011;52576;53.614;9.894;2022-07-04T04:18:11;23.65;;;16.38;;
21780;SDS011;52576;53.614;9.894;2022-07-04T04:19:14;21.67;;;15.75;;
21780;SDS011;52576;53.614;9.894;2022-07-04T04:20:16;23.05;;;16.27;;
21780;SDS011;52576;53.614;9.894;2022-07-04T04:21:19;21.17;;;15.90;;
21780;SDS011;52576;53.614;9.894;2022-07-04T04:22:22;26.13;;;16.00;;
21780;SDS011;52576;53.614;9.894;2022-07-04T04:23:25;24.45;;;15.23;;
21780;SDS011;52576;53.614;9.894;2022-07-04T04:24:27;25.08;;;15.82;;
21780;SDS011;52576;53.614;9.894;2022-07-04T04:25:30;21.17;;;15.75;;
21780;SDS011;52576;53.614;9.894;2022-07-04T04:26:32;20.67;;;15.40;;
21780;SDS011;52576;53.614;9.894;2022-07-04T04:27:36;20.60;;;14.55;;
21780;SDS011;52576;53.614;9.894;2022-07-04T04:28:39;21.42;;;14.73;;
21780;SDS011;52576;53.614;9.894;2022-07-04T04:29:42;18.33;;;13.93;;
21780;SDS011;52576;53.614;9.894;2022-07-04T04:30:45;19.88;;;13.40;;
21780;SDS011;52576;53.614;9.894;2022-07-04T04:31:48;20.42;;;13.75;;
21780;SDS011;52576;53.614;9.894;2022-07-04T04:32:50;22.00;;;13.18;;
21780;SDS011;52576;53.614;9.894;2022-07-04T04:33:53;26.65;;;13.40;;
21780;SDS011;52576;53.614;9.894;2022-07-04T04:34:55;16.52;;;12.25;;
21780;SDS011;52576;53.614;9.894;2022-07-04T04:36:00;18.13;;;12.63;;
21780;SDS011;52576;53.614;9.894;2022-07-04T04:37:03;14.85;;;11.88;;
21780;SDS011;52576;53.614;9.894;2022-07-04T04:38:05;16.08;;;11.45;;
21780;SDS011;52576;53.614;9.894;2022-07-04T04:39:08;19.27;;;11.77;;
21780;SDS011;52576;53.614;9.894;2022-07-04T04:40:11;19.17;;;11.13;;
21780;SDS011;52576;53.614;9.894;2022-07-04T04:41:14;17.77;;;10.57;;
21780;SDS011;52576;53.614;9.894;2022-07-04T04:42:18;18.05;;;11.00;;
21780;SDS011;52576;53.614;9.894;2022-07-04T04:43:21;17.67;;;10.60;;
21780;SDS011;52576;53.614;9.894;2022-07-04T04:44:25;15.02;;;10.05;;
21780;SDS011;52576;53.614;9.894;2022-07-04T04:45:28;15.82;;;9.32;;
21780;SDS011;52576;53.614;9.894;2022-07-04T04:46:31;13.38;;;9.02;;
21780;SDS011;52576;53.614;9.894;2022-07-04T04:47:34;14.27;;;8.80;;
21780;SDS011;52576;53.614;9.894;2022-07-04T04:48:36;16.50;;;7.95;;
21780;SDS011;52576;53.614;9.894;2022-07-04T04:49:39;12.27;;;7.20;;
21780;SDS011;52576;53.614;9.894;2022-07-04T04:50:59;15.55;;;7.93;;
21780;SDS011;52576;53.614;9.894;2022-07-04T04:52:09;10.18;;;7.10;;
21780;SDS011;52576;53.614;9.894;2022-07-04T04:53:12;12.82;;;7.25;;
21780;SDS011;52576;53.614;9.894;2022-07-04T04:54:16;11.68;;;7.22;;
21780;SDS011;52576;53.614;9.894;2022-07-04T04:55:18;9.90;;;7.45;;
21780;SDS011;52576;53.614;9.894;2022-07-04T04:56:24;16.20;;;7.15;;
21780;SDS011;52576;53.614;9.894;2022-07-04T04:57:26;12.02;;;6.82;;
21780;SDS011;52576;53.614;9.894;2022-07-04T04:58:29;13.63;;;7.15;;
21780;SDS011;52576;53.614;9.894;2022-07-04T04:59:33;12.75;;;6.10;;
21780;SDS011;52576;53.614;9.894;2022-07-04T05:00:37;10.45;;;6.60;;
21780;SDS011;52576;53.614;9.894;2022-07-04T05:01:39;13.73;;;6.47;;
21780;SDS011;52576;53.614;9.894;2022-07-04T05:02:43;13.27;;;5.90;;
21780;SDS011;52576;53.614;9.894;2022-07-04T05:03:46;8.20;;;5.90;;
21780;SDS011;52576;53.614;9.894;2022-07-04T05:04:49;9.55;;;5.85;;
21780;SDS011;52576;53.614;9.894;2022-07-04T05:05:52;10.48;;;5.47;;
21780;SDS011;52576;53.614;9.894;2022-07-04T05:06:55;8.27;;;4.82;;
21780;SDS011;52576;53.614;9.894;2022-07-04T05:07:58;10.95;;;4.97;;
21780;SDS011;52576;53.614;9.894;2022-07-04T05:09:01;10.30;;;5.38;;
21780;SDS011;52576;53.614;9.894;2022-07-04T05:10:04;8.88;;;4.40;;
21780;SDS011;52576;53.614;9.894;2022-07-04T05:11:07;10.07;;;4.53;;
21780;SDS011;52576;53.614;9.894;2022-07-04T05:12:11;9.48;;;4.43;;
21780;SDS011;52576;53.614;9.894;2022-07-04T05:13:13;8.35;;;4.22;;
21780;SDS011;52576;53.614;9.894;2022-07-04T05:14:16;9.82;;;4.47;;
21780;SDS011;52576;53.614;9.894;2022-07-04T05:15:20;11.60;;;4.38;;
21780;SDS011;52576;53.614;9.894;2022-07-04T05:16:23;7.45;;;4.10;;
21780;SDS011;52576;53.614;9.894;2022-07-04T05:17:25;7.53;;;3.53;;
21780;SDS011;52576;53.614;9.894;2022-07-04T05:18:28;9.30;;;3.92;;
21780;SDS011;52576;53.614;9.894;2022-07-04T05:19:31;9.75;;;3.40;;
21780;SDS011;52576;53.614;9.894;2022-07-04T05:20:34;10.40;;;3.97;;
21780;SDS011;52576;53.614;9.894;2022-07-04T05:21:37;6.38;;;3.45;;
21780;SDS011;52576;53.614;9.894;2022-07-04T05:22:39;8.65;;;3.60;;
21780;SDS011;52576;53.614;9.894;2022-07-04T05:23:42;7.00;;;3.50;;
21780;SDS011;52576;53.614;9.894;2022-07-04T05:24:45;5.85;;;3.55;;
21780;SDS011;52576;53.614;9.894;2022-07-04T05:25:49;7.82;;;3.10;;
21780;SDS011;52576;53.614;9.894;2022-07-04T05:26:51;7.00;;;3.20;;
21780;SDS011;52576;53.614;9.894;2022-07-04T05:27:59;7.70;;;3.00;;
21780;SDS011;52576;53.614;9.894;2022-07-04T05:29:01;6.43;;;2.72;;
21780;SDS011;52576;53.614;9.894;2022-07-04T05:30:05;6.57;;;3.08;;
21780;SDS011;52576;53.614;9.894;2022-07-04T05:31:09;4.55;;;2.90;;
21780;SDS011;52576;53.614;9.894;2022-07-04T05:32:12;6.28;;;2.90;;
21780;SDS011;52576;53.614;9.894;2022-07-04T05:33:14;6.82;;;2.67;;
21780;SDS011;52576;53.614;9.894;2022-07-04T05:34:17;6.32;;;2.53;;
21780;SDS011;52576;53.614;9.894;2022-07-04T05:35:20;6.72;;;2.50;;
21780;SDS011;52576;53.614;9.894;2022-07-04T05:36:23;7.53;;;2.60;;
21780;SDS011;52576;53.614;9.894;2022-07-04T05:37:30;5.88;;;2.63;;
21780;SDS011;52576;53.614;9.894;2022-07-04T05:38:32;7.93;;;2.85;;
21780;SDS011;52576;53.614;9.894;2022-07-04T05:39:35;7.70;;;2.88;;
21780;SDS011;52576;53.614;9.894;2022-07-04T05:40:39;5.63;;;2.38;;
21780;SDS011;52576;53.614;9.894;2022-07-04T05:41:41;10.88;;;2.70;;
21780;SDS011;52576;53.614;9.894;2022-07-04T05:42:44;4.85;;;2.25;;
21780;SDS011;52576;53.614;9.894;2022-07-04T05:43:46;6.97;;;2.70;;
21780;SDS011;52576;53.614;9.894;2022-07-04T05:44:56;7.53;;;2.47;;
21780;SDS011;52576;53.614;9.894;2022-07-04T05:45:58;6.05;;;2.13;;
21780;SDS011;52576;53.614;9.894;2022-07-04T05:47:03;4.38;;;2.13;;
21780;SDS011;52576;53.614;9.894;2022-07-04T05:48:05;5.63;;;2.20;;
21780;SDS011;52576;53.614;9.894;2022-07-04T05:49:47;5.68;;;2.22;;
21780;SDS011;52576;53.614;9.894;2022-07-04T05:50:44;6.20;;;2.40;;
21780;SDS011;52576;53.614;9.894;2022-07-04T05:51:47;6.22;;;2.05;;
21780;SDS011;52576;53.614;9.894;2022-07-04T05:52:50;9.68;;;2.38;;
21780;SDS011;52576;53.614;9.894;2022-07-04T05:53:52;7.03;;;2.50;;
21780;SDS011;52576;53.614;9.894;2022-07-04T05:54:55;6.53;;;2.08;;
21780;SDS011;52576;53.614;9.894;2022-07-04T05:55:58;3.65;;;1.90;;
21780;SDS011;52576;53.614;9.894;2022-07-04T05:57:01;6.20;;;2.03;;
21780;SDS011;52576;53.614;9.894;2022-07-04T05:58:03;7.88;;;2.00;;
21780;SDS011;52576;53.614;9.894;2022-07-04T05:59:06;5.45;;;2.17;;
21780;SDS011;52576;53.614;9.894;2022-07-04T06:00:28;5.60;;;2.08;;
21780;SDS011;52576;53.614;9.894;2022-07-04T06:01:31;7.05;;;2.20;;
21780;SDS011;52576;53.614;9.894;2022-07-04T06:02:34;8.20;;;1.98;;
21780;SDS011;52576;53.614;9.894;2022-07-04T06:03:38;7.65;;;2.10;;
21780;SDS011;52576;53.614;9.894;2022-07-04T06:04:41;5.30;;;1.90;;
21780;SDS011;52576;53.614;9.894;2022-07-04T06:05:45;7.10;;;1.70;;
21780;SDS011;52576;53.614;9.894;2022-07-04T06:06:48;6.18;;;1.67;;
21780;SDS011;52576;53.614;9.894;2022-07-04T06:07:50;7.38;;;1.85;;
21780;SDS011;52576;53.614;9.894;2022-07-04T06:08:53;7.63;;;2.03;;
21780;SDS011;52576;53.614;9.894;2022-07-04T06:09:56;6.68;;;1.85;;
21780;SDS011;52576;53.614;9.894;2022-07-04T06:10:59;6.10;;;2.05;;
21780;SDS011;52576;53.614;9.894;2022-07-04T06:12:01;5.22;;;1.70;;
21780;SDS011;52576;53.614;9.894;2022-07-04T06:13:05;7.55;;;1.65;;
21780;SDS011;52576;53.614;9.894;2022-07-04T06:14:10;5.75;;;1.42;;
21780;SDS011;52576;53.614;9.894;2022-07-04T06:15:13;4.95;;;1.65;;
21780;SDS011;52576;53.614;9.894;2022-07-04T06:16:17;8.90;;;2.05;;